createdAt,value
2023-05-11T00:00:01.893Z,30.53
2023-05-11T00:01:01.855Z,30.61
2023-05-11T00:02:01.936Z,30.55
2023-05-11T00:03:01.914Z,30.58
2023-05-11T00:04:01.910Z,30.58
2023-05-11T00:05:01.816Z,30.52
2023-05-11T00:06:01.820Z,30.54
2023-05-11T00:07:01.803Z,30.47
2023-05-11T00:08:01.829Z,30.48
2023-05-11T00:09:01.777Z,30.47
2023-05-11T00:10:01.816Z,30.54
2023-05-11T00:11:01.770Z,30.48
2023-05-11T00:12:01.766Z,30.42
2023-05-11T00:13:01.765Z,30.34
2023-05-11T00:14:01.766Z,30.38
2023-05-11T00:15:01.773Z,30.42
2023-05-11T00:16:01.771Z,30.47
2023-05-11T00:17:01.733Z,30.26
2023-05-11T00:18:01.863Z,30.26
2023-05-11T00:19:01.793Z,30.29
2023-05-11T00:20:01.720Z,30.29
2023-05-11T00:21:01.720Z,30.32
2023-05-11T00:22:01.742Z,30.27
2023-05-11T00:23:01.699Z,30.30
2023-05-11T00:24:01.699Z,30.26
2023-05-11T00:25:01.709Z,30.20
2023-05-11T00:26:01.680Z,30.20
2023-05-11T00:27:01.682Z,30.03
2023-05-11T00:28:01.661Z,29.99
2023-05-11T00:29:01.650Z,29.97
2023-05-11T00:30:01.686Z,29.93
2023-05-11T00:31:01.701Z,29.90
2023-05-11T00:32:01.621Z,30.06
2023-05-11T00:33:01.693Z,29.97
2023-05-11T00:34:01.619Z,29.74
2023-05-11T00:35:01.633Z,29.74
2023-05-11T00:36:01.585Z,29.77
2023-05-11T00:37:01.603Z,29.87
2023-05-11T00:38:01.587Z,29.89
2023-05-11T00:39:01.576Z,29.84
2023-05-11T00:40:01.609Z,29.81
2023-05-11T00:41:01.592Z,29.78
2023-05-11T00:42:01.567Z,29.52
2023-05-11T00:43:01.559Z,29.61
2023-05-11T00:44:01.549Z,29.66
2023-05-11T00:45:01.566Z,29.62
2023-05-11T00:46:01.542Z,29.55
2023-05-11T00:47:01.582Z,29.53
2023-05-11T00:48:01.561Z,29.49
2023-05-11T00:49:01.526Z,29.52
2023-05-11T00:50:01.491Z,29.49
2023-05-11T00:51:01.520Z,29.42
2023-05-11T00:52:01.488Z,29.50
2023-05-11T00:53:01.541Z,29.53
2023-05-11T00:54:01.474Z,29.49
2023-05-11T00:55:01.470Z,29.54
2023-05-11T00:56:01.489Z,29.57
2023-05-11T00:57:01.457Z,29.56
2023-05-11T00:58:01.451Z,29.60
2023-05-11T00:59:01.437Z,29.55
2023-05-11T01:00:01.505Z,29.52
2023-05-11T01:01:01.533Z,29.42
2023-05-11T01:02:01.465Z,29.46
2023-05-11T01:03:01.493Z,29.48
2023-05-11T01:04:01.425Z,29.45
2023-05-11T01:05:01.390Z,29.42
2023-05-11T01:06:01.386Z,29.42
2023-05-11T01:07:01.418Z,29.41
2023-05-11T01:08:01.407Z,29.41
2023-05-11T01:09:01.392Z,29.38
2023-05-11T01:10:01.391Z,29.38
2023-05-11T01:11:01.355Z,29.42
2023-05-11T01:12:01.339Z,29.34
2023-05-11T01:13:01.363Z,29.27
2023-05-11T01:14:01.345Z,29.11
2023-05-11T01:15:01.358Z,29.08
2023-05-11T01:16:01.347Z,29.00
2023-05-11T01:17:01.368Z,29.08
2023-05-11T01:18:01.394Z,29.07
2023-05-11T01:19:01.361Z,29.01
2023-05-11T01:20:01.333Z,28.94
2023-05-11T01:21:01.272Z,28.93
2023-05-11T01:22:01.304Z,28.98
2023-05-11T01:23:01.338Z,28.95
2023-05-11T01:24:01.379Z,28.87
2023-05-11T01:25:01.370Z,28.87
2023-05-11T01:26:01.384Z,28.82
2023-05-11T01:27:01.456Z,28.93
2023-05-11T01:28:01.441Z,28.85
2023-05-11T01:29:01.493Z,28.78
2023-05-11T01:30:01.521Z,28.85
2023-05-11T01:31:01.547Z,28.92
2023-05-11T01:32:01.619Z,28.72
2023-05-11T01:33:01.695Z,28.87
2023-05-11T01:34:01.640Z,28.90
2023-05-11T01:35:01.682Z,28.89
2023-05-11T01:36:01.734Z,28.96
2023-05-11T01:37:01.766Z,28.98
2023-05-11T01:38:01.772Z,28.93
2023-05-11T01:39:01.796Z,28.86
2023-05-11T01:40:01.872Z,28.87
2023-05-11T01:41:01.918Z,28.80
2023-05-11T01:42:01.929Z,28.91
2023-05-11T01:43:01.966Z,28.81
2023-05-11T01:44:02.002Z,28.67
2023-05-11T01:45:02.104Z,28.72
2023-05-11T01:46:02.140Z,28.72
2023-05-11T01:47:02.149Z,28.66
2023-05-11T01:48:02.226Z,28.69
2023-05-11T01:49:02.250Z,28.67
2023-05-11T01:50:02.290Z,28.70
2023-05-11T01:51:02.332Z,28.72
2023-05-11T01:52:02.410Z,28.74
2023-05-11T01:53:02.449Z,28.72
2023-05-11T01:54:02.482Z,28.75
2023-05-11T01:55:02.555Z,28.71
2023-05-11T01:56:02.571Z,28.73
2023-05-11T01:57:02.677Z,28.65
2023-05-11T01:58:02.732Z,28.82
2023-05-11T01:59:02.775Z,28.86
2023-05-11T02:00:02.849Z,28.80
2023-05-11T02:01:02.909Z,28.86
2023-05-11T02:02:02.946Z,28.87
2023-05-11T02:03:03.125Z,28.86
2023-05-11T02:04:03.092Z,28.84
2023-05-11T02:05:03.132Z,28.85
2023-05-11T02:06:03.241Z,28.83
2023-05-11T02:07:03.261Z,28.94
2023-05-11T02:08:03.328Z,28.85
2023-05-11T02:09:03.431Z,28.87
2023-05-11T02:10:03.454Z,28.85
2023-05-11T02:11:03.529Z,28.86
2023-05-11T02:12:03.549Z,28.91
2023-05-11T02:13:03.662Z,28.95
2023-05-11T02:14:03.704Z,28.88
2023-05-11T02:15:03.758Z,28.88
2023-05-11T02:16:03.824Z,28.87
2023-05-11T02:17:03.906Z,28.81
2023-05-11T02:18:03.945Z,28.80
2023-05-11T02:19:04.168Z,28.84
2023-05-11T02:20:04.046Z,28.81
2023-05-11T02:21:04.123Z,28.86
2023-05-11T02:22:04.157Z,28.81
2023-05-11T02:23:04.257Z,28.90
2023-05-11T02:24:04.272Z,28.82
2023-05-11T02:25:04.346Z,28.69
2023-05-11T02:26:04.382Z,28.69
2023-05-11T02:27:04.456Z,28.71
2023-05-11T02:28:04.525Z,28.82
2023-05-11T02:29:04.575Z,28.81
2023-05-11T02:30:04.615Z,28.76
2023-05-11T02:31:04.707Z,28.86
2023-05-11T02:32:04.750Z,28.82
2023-05-11T02:33:04.790Z,28.67
2023-05-11T02:34:04.842Z,28.68
2023-05-11T02:35:04.872Z,28.62
2023-05-11T02:36:04.933Z,28.63
2023-05-11T02:37:04.975Z,28.74
2023-05-11T02:38:05.030Z,28.70
2023-05-11T02:39:05.058Z,28.71
2023-05-11T02:40:05.132Z,28.77
2023-05-11T02:41:05.161Z,28.64
2023-05-11T02:42:05.220Z,28.67
2023-05-11T02:43:05.265Z,28.68
2023-05-11T02:44:05.342Z,28.73
2023-05-11T02:45:05.392Z,28.73
2023-05-11T02:46:05.393Z,28.81
2023-05-11T02:47:05.460Z,28.77
2023-05-11T02:48:05.509Z,28.70
2023-05-11T02:49:05.529Z,28.62
2023-05-11T02:50:05.580Z,28.55
2023-05-11T02:51:05.645Z,28.56
2023-05-11T02:52:05.683Z,28.59
2023-05-11T02:53:05.727Z,28.60
2023-05-11T02:54:05.797Z,28.72
2023-05-11T02:55:05.828Z,28.60
2023-05-11T02:56:05.849Z,28.39
2023-05-11T02:57:05.936Z,28.46
2023-05-11T02:58:06.004Z,28.45
2023-05-11T02:59:06.021Z,28.47
2023-05-11T03:00:06.064Z,28.46
2023-05-11T03:01:06.198Z,28.42
2023-05-11T03:02:06.274Z,28.33
2023-05-11T03:03:06.300Z,28.39
2023-05-11T03:04:06.258Z,28.39
2023-05-11T03:05:06.335Z,28.32
2023-05-11T03:06:06.355Z,28.40
2023-05-11T03:07:06.463Z,28.30
2023-05-11T03:08:06.460Z,28.33
2023-05-11T03:09:08.492Z,28.44
2023-05-11T03:10:06.510Z,28.39
2023-05-11T03:11:06.509Z,28.40
2023-05-11T03:12:06.474Z,28.44
2023-05-11T03:13:06.471Z,28.41
2023-05-11T03:14:06.452Z,28.37
2023-05-11T03:15:06.470Z,28.47
2023-05-11T03:16:06.819Z,28.45
2023-05-11T03:17:06.493Z,28.45
2023-05-11T03:18:06.481Z,28.45
2023-05-11T03:19:06.540Z,28.42
2023-05-11T03:20:06.450Z,28.48
2023-05-11T03:21:06.465Z,28.45
2023-05-11T03:22:06.455Z,28.49
2023-05-11T03:23:06.413Z,28.51
2023-05-11T03:24:06.400Z,28.45
2023-05-11T03:25:06.402Z,28.56
2023-05-11T03:26:06.397Z,28.52
2023-05-11T03:27:06.377Z,28.48
2023-05-11T03:28:06.381Z,28.48
2023-05-11T03:29:06.367Z,28.50
2023-05-11T03:30:06.375Z,28.48
2023-05-11T03:31:06.360Z,28.47
2023-05-11T03:32:06.346Z,28.55
2023-05-11T03:33:06.437Z,28.54
2023-05-11T03:34:06.342Z,28.59
2023-05-11T03:35:06.323Z,28.47
2023-05-11T03:36:06.338Z,28.48
2023-05-11T03:37:06.309Z,28.55
2023-05-11T03:38:06.319Z,28.58
2023-05-11T03:39:06.289Z,28.55
2023-05-11T03:40:06.309Z,28.61
2023-05-11T03:41:06.266Z,28.68
2023-05-11T03:42:06.337Z,28.62
2023-05-11T03:43:06.355Z,28.62
2023-05-11T03:44:06.459Z,28.59
2023-05-11T03:45:06.489Z,28.59
2023-05-11T03:46:06.577Z,28.65
2023-05-11T03:47:06.620Z,28.65
2023-05-11T03:48:06.872Z,28.54
2023-05-11T03:49:06.724Z,28.52
2023-05-11T03:50:06.812Z,28.48
2023-05-11T03:51:06.859Z,28.49
2023-05-11T03:52:06.909Z,28.48
2023-05-11T03:53:07.003Z,28.56
2023-05-11T03:54:07.055Z,28.65
2023-05-11T03:55:07.123Z,28.62
2023-05-11T03:56:07.164Z,28.49
2023-05-11T03:57:07.250Z,28.53
2023-05-11T03:58:07.294Z,28.45
2023-05-11T03:59:07.380Z,28.47
2023-05-11T04:00:07.420Z,28.50
2023-05-11T04:01:07.511Z,28.50
2023-05-11T04:02:07.593Z,28.62
2023-05-11T04:03:07.719Z,28.42
2023-05-11T04:04:07.788Z,28.43
2023-05-11T04:05:07.736Z,28.45
2023-05-11T04:06:07.800Z,28.49
2023-05-11T04:07:07.845Z,28.42
2023-05-11T04:08:07.953Z,28.41
2023-05-11T04:09:07.978Z,28.38
2023-05-11T04:10:08.068Z,28.54
2023-05-11T04:11:08.121Z,28.54
2023-05-11T04:12:08.188Z,28.51
2023-05-11T04:13:08.237Z,28.54
2023-05-11T04:14:08.292Z,28.59
2023-05-11T04:15:08.360Z,28.63
2023-05-11T04:16:08.434Z,28.63
2023-05-11T04:17:08.471Z,28.66
2023-05-11T04:18:08.593Z,28.52
2023-05-11T04:19:08.616Z,28.53
2023-05-11T04:20:08.686Z,28.47
2023-05-11T04:21:08.724Z,28.47
2023-05-11T04:22:08.800Z,28.56
2023-05-11T04:23:10.402Z,28.70
2023-05-11T04:24:08.905Z,28.49
2023-05-11T04:25:08.987Z,28.53
2023-05-11T04:26:09.014Z,28.64
2023-05-11T04:27:09.086Z,28.63
2023-05-11T04:28:09.143Z,28.71
2023-05-11T04:29:09.184Z,28.61
2023-05-11T04:30:09.280Z,28.65
2023-05-11T04:31:09.353Z,28.62
2023-05-11T04:32:09.350Z,28.57
2023-05-11T04:33:09.427Z,28.55
2023-05-11T04:34:09.487Z,28.57
2023-05-11T04:35:09.541Z,28.56
2023-05-11T04:36:09.609Z,28.57
2023-05-11T04:37:09.619Z,28.47
2023-05-11T04:38:09.700Z,28.49
2023-05-11T04:39:09.720Z,28.46
2023-05-11T04:40:09.791Z,28.40
2023-05-11T04:41:09.828Z,28.40
2023-05-11T04:42:09.882Z,28.39
2023-05-11T04:43:09.919Z,28.38
2023-05-11T04:44:09.993Z,28.40
2023-05-11T04:45:10.040Z,28.28
2023-05-11T04:46:10.077Z,28.36
2023-05-11T04:47:10.099Z,28.27
2023-05-11T04:48:10.153Z,28.31
2023-05-11T04:49:10.190Z,28.37
2023-05-11T04:50:10.218Z,28.27
2023-05-11T04:51:10.270Z,28.30
2023-05-11T04:52:10.451Z,28.33
2023-05-11T04:53:10.329Z,28.31
2023-05-11T04:54:10.368Z,28.37
2023-05-11T04:55:10.424Z,28.23
2023-05-11T04:56:10.491Z,28.25
2023-05-11T04:57:10.496Z,28.29
2023-05-11T04:58:10.549Z,28.25
2023-05-11T04:59:10.580Z,28.27
2023-05-11T05:00:10.628Z,28.27
2023-05-11T05:01:17.693Z,28.26
2023-05-11T05:02:10.586Z,28.29
2023-05-11T05:03:10.693Z,28.24
2023-05-11T05:04:10.706Z,28.25
2023-05-11T05:05:10.584Z,28.24
2023-05-11T05:06:10.567Z,28.21
2023-05-11T05:07:10.553Z,28.24
2023-05-11T05:08:10.558Z,28.24
2023-05-11T05:09:10.549Z,28.24
2023-05-11T05:10:10.548Z,28.25
2023-05-11T05:11:10.522Z,28.22
2023-05-11T05:12:10.528Z,28.26
2023-05-11T05:13:10.520Z,28.25
2023-05-11T05:14:10.523Z,28.20
2023-05-11T05:15:10.510Z,28.22
2023-05-11T05:16:10.581Z,28.20
2023-05-11T05:17:10.548Z,28.16
2023-05-11T05:18:10.539Z,28.08
2023-05-11T05:19:10.535Z,27.94
2023-05-11T05:20:10.455Z,27.86
2023-05-11T05:21:10.453Z,27.88
2023-05-11T05:22:10.502Z,27.88
2023-05-11T05:23:10.458Z,27.87
2023-05-11T05:24:10.442Z,27.82
2023-05-11T05:25:10.458Z,27.91
2023-05-11T05:26:10.418Z,27.93
2023-05-11T05:27:10.438Z,28.05
2023-05-11T05:28:10.396Z,28.02
2023-05-11T05:29:10.415Z,27.96
2023-05-11T05:30:10.434Z,27.85
2023-05-11T05:31:10.452Z,27.87
2023-05-11T05:32:10.393Z,27.92
2023-05-11T05:33:10.423Z,27.99
2023-05-11T05:34:10.392Z,28.03
2023-05-11T05:35:10.357Z,28.36
2023-05-11T05:36:10.364Z,28.43
2023-05-11T05:37:10.350Z,28.98
2023-05-11T05:38:10.357Z,29.17
2023-05-11T05:39:10.328Z,29.51
2023-05-11T05:40:10.339Z,29.61
2023-05-11T05:41:10.626Z,30.01
2023-05-11T05:42:10.338Z,30.91
2023-05-11T05:43:10.347Z,30.87
2023-05-11T05:44:10.420Z,30.93
2023-05-11T05:45:12.444Z,32.22
2023-05-11T05:46:19.709Z,31.95
2023-05-11T05:47:10.335Z,32.95
2023-05-11T05:48:10.403Z,31.77
2023-05-11T05:49:10.360Z,31.80
2023-05-11T05:50:10.355Z,31.79
2023-05-11T05:51:10.322Z,31.35
2023-05-11T05:52:10.352Z,31.10
2023-05-11T05:53:10.303Z,30.40
2023-05-11T05:54:10.314Z,30.40
2023-05-11T05:55:10.316Z,30.12
2023-05-11T05:56:10.313Z,29.62
2023-05-11T05:57:10.314Z,29.44
2023-05-11T05:58:10.287Z,29.37
2023-05-11T05:59:10.282Z,29.39
2023-05-11T06:00:10.246Z,29.54
2023-05-11T06:01:10.256Z,29.72
2023-05-11T06:02:10.276Z,29.94
2023-05-11T06:03:10.448Z,30.46
2023-05-11T06:04:10.369Z,30.91
2023-05-11T06:05:10.205Z,31.14
2023-05-11T06:06:10.217Z,31.16
2023-05-11T06:07:10.245Z,31.74
2023-05-11T06:08:11.412Z,32.36
2023-05-11T06:09:10.213Z,32.55
2023-05-11T06:10:10.218Z,32.71
2023-05-11T06:11:10.217Z,32.87
2023-05-11T06:12:10.288Z,33.14
2023-05-11T06:13:10.181Z,32.96
2023-05-11T06:14:10.178Z,33.21
2023-05-11T06:15:10.170Z,33.31
2023-05-11T06:16:10.224Z,33.13
2023-05-11T06:17:10.160Z,33.23
2023-05-11T06:18:10.228Z,33.23
2023-05-11T06:19:10.238Z,32.93
2023-05-11T06:20:10.159Z,33.25
2023-05-11T06:21:10.145Z,33.30
2023-05-11T06:22:10.140Z,33.39
2023-05-11T06:23:10.094Z,33.45
2023-05-11T06:24:10.105Z,33.41
2023-05-11T06:25:10.084Z,33.04
2023-05-11T06:26:10.110Z,32.90
2023-05-11T06:27:10.067Z,32.82
2023-05-11T06:28:10.080Z,33.03
2023-05-11T06:29:10.056Z,33.16
2023-05-11T06:30:10.089Z,33.18
2023-05-11T06:31:10.215Z,32.22
2023-05-11T06:32:10.243Z,32.58
2023-05-11T06:33:10.218Z,32.34
2023-05-11T06:34:10.287Z,33.03
2023-05-11T06:35:10.288Z,33.38
2023-05-11T06:36:10.339Z,33.82
2023-05-11T06:37:10.400Z,33.27
2023-05-11T06:38:10.410Z,33.14
2023-05-11T06:39:10.409Z,31.89
2023-05-11T06:40:10.494Z,31.75
2023-05-11T06:41:10.564Z,31.71
2023-05-11T06:42:10.546Z,30.94
2023-05-11T06:43:10.564Z,30.90
2023-05-11T06:44:10.632Z,30.57
2023-05-11T06:45:10.741Z,30.23
2023-05-11T06:46:10.894Z,30.64
2023-05-11T06:47:10.807Z,30.49
2023-05-11T06:48:10.860Z,31.77
2023-05-11T06:49:10.876Z,31.44
2023-05-11T06:50:10.917Z,31.42
2023-05-11T06:51:10.969Z,31.42
2023-05-11T06:52:11.194Z,31.61
2023-05-11T06:53:11.035Z,31.35
2023-05-11T06:54:11.101Z,31.43
2023-05-11T06:55:11.075Z,31.70
2023-05-11T06:56:11.157Z,31.85
2023-05-11T06:57:12.704Z,31.92
2023-05-11T06:58:11.187Z,32.00
2023-05-11T06:59:11.158Z,32.23
2023-05-11T07:00:11.155Z,32.30
2023-05-11T07:01:11.144Z,32.22
2023-05-11T07:02:11.112Z,32.03
2023-05-11T07:03:11.263Z,31.71
2023-05-11T07:04:11.125Z,32.10
2023-05-11T07:05:11.112Z,32.56
2023-05-11T07:06:11.084Z,32.60
2023-05-11T07:07:11.080Z,33.16
2023-05-11T07:08:12.237Z,32.93
2023-05-11T07:09:11.046Z,33.32
2023-05-11T07:10:11.030Z,33.44
2023-05-11T07:11:11.054Z,33.74
2023-05-11T07:12:11.057Z,33.78
2023-05-11T07:13:11.041Z,33.77
2023-05-11T07:14:11.011Z,33.91
2023-05-11T07:15:10.997Z,33.54
2023-05-11T07:16:11.029Z,32.19
2023-05-11T07:17:11.093Z,32.70
2023-05-11T07:18:11.141Z,32.66
2023-05-11T07:19:11.055Z,32.52
2023-05-11T07:20:10.991Z,32.58
2023-05-11T07:21:10.961Z,32.49
2023-05-11T07:22:12.237Z,32.35
2023-05-11T07:23:10.965Z,31.99
2023-05-11T07:24:10.966Z,30.94
2023-05-11T07:25:10.909Z,30.38
2023-05-11T07:26:10.961Z,30.99
2023-05-11T07:27:10.931Z,30.18
2023-05-11T07:28:11.167Z,29.88
2023-05-11T07:29:10.896Z,30.18
2023-05-11T07:30:10.917Z,29.17
2023-05-11T07:31:10.926Z,29.01
2023-05-11T07:32:11.708Z,29.44
2023-05-11T07:33:10.938Z,29.29
2023-05-11T07:34:10.903Z,29.24
2023-05-11T07:35:10.883Z,29.05
2023-05-11T07:36:10.865Z,29.50
2023-05-11T07:37:10.821Z,30.77
2023-05-11T07:38:11.165Z,30.09
2023-05-11T07:39:10.861Z,29.43
2023-05-11T07:40:10.794Z,29.18
2023-05-11T07:41:12.454Z,29.56
2023-05-11T07:42:10.811Z,29.65
2023-05-11T07:43:11.219Z,29.92
2023-05-11T07:44:10.800Z,30.34
2023-05-11T07:45:10.794Z,29.64
2023-05-11T07:46:10.812Z,30.70
2023-05-11T07:47:10.772Z,31.18
2023-05-11T07:48:10.862Z,31.09
2023-05-11T07:49:17.184Z,31.40
2023-05-11T07:50:11.732Z,31.10
2023-05-11T07:51:10.764Z,31.02
2023-05-11T07:52:10.707Z,31.04
2023-05-11T07:53:10.720Z,30.88
2023-05-11T07:54:10.732Z,30.78
2023-05-11T07:55:10.733Z,30.62
2023-05-11T07:56:10.734Z,30.79
2023-05-11T07:57:10.696Z,31.05
2023-05-11T07:58:10.695Z,31.19
2023-05-11T07:59:10.656Z,31.32
2023-05-11T08:00:11.127Z,31.06
2023-05-11T08:01:10.672Z,28.86
2023-05-11T08:02:12.316Z,28.99
2023-05-11T08:03:11.253Z,28.60
2023-05-11T08:04:10.759Z,29.20
2023-05-11T08:05:10.725Z,29.72
2023-05-11T08:06:10.887Z,30.35
2023-05-11T08:07:10.777Z,30.69
2023-05-11T08:08:10.774Z,30.74
2023-05-11T08:09:10.772Z,30.82
2023-05-11T08:10:10.788Z,30.97
2023-05-11T08:11:10.782Z,31.22
2023-05-11T08:12:10.822Z,31.21
2023-05-11T08:13:10.865Z,31.44
2023-05-11T08:14:10.772Z,31.50
2023-05-11T08:15:10.778Z,31.70
2023-05-11T08:16:10.805Z,31.70
2023-05-11T08:17:10.803Z,31.75
2023-05-11T08:18:10.850Z,31.85
2023-05-11T08:19:10.855Z,31.98
2023-05-11T08:20:10.876Z,32.17
2023-05-11T08:21:10.968Z,32.30
2023-05-11T08:22:10.991Z,32.23
2023-05-11T08:23:11.063Z,32.24
2023-05-11T08:24:11.098Z,32.36
2023-05-11T08:25:11.715Z,32.51
2023-05-11T08:26:11.224Z,32.45
2023-05-11T08:27:11.322Z,32.44
2023-05-11T08:28:11.374Z,32.49
2023-05-11T08:29:11.421Z,32.59
2023-05-11T08:30:11.964Z,32.69
2023-05-11T08:31:11.589Z,32.64
2023-05-11T08:32:11.633Z,32.65
2023-05-11T08:33:29.038Z,32.72
2023-05-11T08:34:19.043Z,33.24
2023-05-11T08:35:12.765Z,32.21
2023-05-11T08:36:11.642Z,31.91
2023-05-11T08:37:11.642Z,32.54
2023-05-11T08:38:11.644Z,31.72
2023-05-11T08:39:11.603Z,30.89
2023-05-11T08:40:13.227Z,29.74
2023-05-11T08:41:11.613Z,29.75
2023-05-11T08:42:11.632Z,28.81
2023-05-11T08:43:11.599Z,28.42
2023-05-11T08:44:11.738Z,28.72
2023-05-11T08:45:11.549Z,28.70
2023-05-11T08:46:11.667Z,28.60
2023-05-11T08:47:22.874Z,28.41
2023-05-11T08:48:12.798Z,28.60
2023-05-11T08:49:11.804Z,28.35
2023-05-11T08:50:11.779Z,28.59
2023-05-11T08:51:11.849Z,28.53
2023-05-11T08:52:11.849Z,29.16
2023-05-11T08:53:11.862Z,28.92
2023-05-11T08:54:11.832Z,29.80
2023-05-11T08:55:11.832Z,29.79
2023-05-11T08:56:11.830Z,30.32
2023-05-11T08:57:11.807Z,30.42
2023-05-11T08:58:11.865Z,30.10
2023-05-11T08:59:11.790Z,29.88
2023-05-11T09:00:11.848Z,29.63
2023-05-11T09:01:11.877Z,29.13
2023-05-11T09:02:11.899Z,29.21
2023-05-11T09:03:11.914Z,28.49
2023-05-11T09:04:12.194Z,27.92
2023-05-11T09:05:11.929Z,28.39
2023-05-11T09:06:11.948Z,28.81
2023-05-11T09:07:12.002Z,29.26
2023-05-11T09:08:12.080Z,29.52
2023-05-11T09:09:12.119Z,29.54
2023-05-11T09:10:13.783Z,30.11
2023-05-11T09:11:12.235Z,30.34
2023-05-11T09:12:12.316Z,30.30
2023-05-11T09:13:12.431Z,30.63
2023-05-11T09:14:12.419Z,30.91
2023-05-11T09:15:12.505Z,31.14
2023-05-11T09:16:27.702Z,31.77
2023-05-11T09:17:13.690Z,31.69
2023-05-11T09:18:12.560Z,31.92
2023-05-11T09:19:12.467Z,31.34
2023-05-11T09:20:12.505Z,31.18
2023-05-11T09:21:12.512Z,31.80
2023-05-11T09:22:12.456Z,32.21
2023-05-11T09:23:12.486Z,31.95
2023-05-11T09:24:12.482Z,31.81
2023-05-11T09:25:12.508Z,31.52
2023-05-11T09:26:12.436Z,33.02
2023-05-11T09:27:12.523Z,34.09
2023-05-11T09:28:15.618Z,34.20
2023-05-11T09:29:12.527Z,33.57
2023-05-11T09:30:12.549Z,35.51
2023-05-11T09:31:12.552Z,34.17
2023-05-11T09:32:12.537Z,34.17
2023-05-11T09:33:12.498Z,35.17
2023-05-11T09:34:12.475Z,34.10
2023-05-11T09:35:12.512Z,35.39
2023-05-11T09:36:12.476Z,34.05
2023-05-11T09:37:12.468Z,34.06
2023-05-11T09:38:12.508Z,34.52
2023-05-11T09:41:12.452Z,34.39
2023-05-11T09:42:12.462Z,33.61
2023-05-11T09:43:12.474Z,33.45
2023-05-11T09:44:12.743Z,33.21
2023-05-11T09:45:12.432Z,32.18
2023-05-11T09:46:12.468Z,30.80
2023-05-11T09:47:12.389Z,30.83
2023-05-11T09:48:12.426Z,30.07
2023-05-11T09:49:12.751Z,33.86
2023-05-11T09:50:12.371Z,33.37
2023-05-11T09:51:12.382Z,30.24
2023-05-11T09:52:12.375Z,28.84
2023-05-11T09:53:12.336Z,28.61
2023-05-11T09:54:12.382Z,26.82
2023-05-11T09:55:12.344Z,26.63
2023-05-11T09:56:12.337Z,26.46
2023-05-11T09:57:12.303Z,26.97
2023-05-11T09:58:12.354Z,26.43
2023-05-11T09:59:12.835Z,26.42
2023-05-11T10:00:12.295Z,26.46
2023-05-11T10:01:12.348Z,26.38
2023-05-11T10:02:12.371Z,26.35
2023-05-11T10:03:12.325Z,26.34
2023-05-11T10:04:22.998Z,26.71
2023-05-11T10:05:13.275Z,26.74
2023-05-11T10:06:12.279Z,26.87
2023-05-11T10:07:12.330Z,26.98
2023-05-11T10:08:12.300Z,27.14
2023-05-11T10:09:12.775Z,27.64
2023-05-11T10:10:12.337Z,27.28
2023-05-11T10:11:12.316Z,27.26
2023-05-11T10:12:12.378Z,26.92
2023-05-11T10:13:12.360Z,27.16
2023-05-11T10:14:12.759Z,26.92
2023-05-11T10:15:12.359Z,27.39
2023-05-11T10:16:12.379Z,27.83
2023-05-11T10:17:12.379Z,28.90
2023-05-11T10:18:12.407Z,28.42
2023-05-11T10:19:12.812Z,29.91
2023-05-11T10:20:12.356Z,29.93
2023-05-11T10:21:12.372Z,29.43
2023-05-11T10:22:12.427Z,30.07
2023-05-11T10:23:12.429Z,30.17
2023-05-11T10:24:12.497Z,30.02
2023-05-11T10:25:12.529Z,30.60
2023-05-11T10:26:12.602Z,29.76
2023-05-11T10:27:12.632Z,29.63
2023-05-11T10:28:12.713Z,29.76
2023-05-11T10:29:12.788Z,29.62
2023-05-11T10:30:12.819Z,29.69
2023-05-11T10:31:12.870Z,29.97
2023-05-11T10:32:12.958Z,30.04
2023-05-11T10:33:13.020Z,29.91
2023-05-11T10:34:13.065Z,30.31
2023-05-11T10:35:13.332Z,30.08
2023-05-11T10:36:19.231Z,30.14
2023-05-11T10:37:14.147Z,30.20
2023-05-11T10:38:13.172Z,30.47
2023-05-11T10:39:13.203Z,30.14
2023-05-11T10:40:13.243Z,30.12
2023-05-11T10:41:13.108Z,29.92
2023-05-11T10:42:13.117Z,30.06
2023-05-11T10:43:13.146Z,30.20
2023-05-11T10:44:13.138Z,30.26
2023-05-11T10:45:13.326Z,30.17
2023-05-11T10:46:13.218Z,30.06
2023-05-11T10:47:13.296Z,30.11
2023-05-11T10:48:13.308Z,29.71
2023-05-11T10:49:13.390Z,29.57
2023-05-11T10:50:13.501Z,29.61
2023-05-11T10:51:13.488Z,29.57
2023-05-11T10:52:13.574Z,29.49
2023-05-11T10:53:13.662Z,29.79
2023-05-11T10:54:13.662Z,29.92
2023-05-11T10:55:13.758Z,29.96
2023-05-11T10:56:13.777Z,30.04
2023-05-11T10:57:13.869Z,30.22
2023-05-11T10:58:13.899Z,30.24
2023-05-11T10:59:13.987Z,30.25
2023-05-11T11:00:14.373Z,30.41
2023-05-11T11:01:14.107Z,30.36
2023-05-11T11:02:14.113Z,30.50
2023-05-11T11:03:14.186Z,30.48
2023-05-11T11:04:14.244Z,30.50
2023-05-11T11:05:14.320Z,30.43
2023-05-11T11:06:14.391Z,30.55
2023-05-11T11:07:14.373Z,30.45
2023-05-11T11:08:14.478Z,30.37
2023-05-11T11:09:14.535Z,30.28
2023-05-11T11:10:14.586Z,30.43
2023-05-11T11:11:14.607Z,30.42
2023-05-11T11:12:14.666Z,30.40
2023-05-11T11:13:14.821Z,30.25
2023-05-11T11:14:14.801Z,30.16
2023-05-11T11:15:14.824Z,30.35
2023-05-11T11:16:16.557Z,30.25
2023-05-11T11:17:15.056Z,30.29
2023-05-11T11:18:15.009Z,30.43
2023-05-11T11:19:15.010Z,30.39
2023-05-11T11:20:15.267Z,30.29
2023-05-11T11:21:15.167Z,30.22
2023-05-11T11:22:15.252Z,30.09
2023-05-11T11:23:15.299Z,30.06
2023-05-11T11:24:15.322Z,30.46
2023-05-11T11:25:15.432Z,30.40
2023-05-11T11:26:15.477Z,30.21
2023-05-11T11:27:15.503Z,30.20
2023-05-11T11:28:15.595Z,30.21
2023-05-11T11:29:15.590Z,30.07
2023-05-11T11:30:15.790Z,30.32
2023-05-11T11:31:15.766Z,30.34
2023-05-11T11:32:15.768Z,30.45
2023-05-11T11:33:15.836Z,30.44
2023-05-11T11:34:15.897Z,30.40
2023-05-11T11:35:16.443Z,30.36
2023-05-11T11:36:15.982Z,30.35
2023-05-11T11:37:16.059Z,30.31
2023-05-11T11:38:16.068Z,30.26
2023-05-11T11:39:16.169Z,30.26
2023-05-11T11:40:16.207Z,30.22
2023-05-11T11:41:16.235Z,30.17
2023-05-11T11:42:16.272Z,30.16
2023-05-11T11:43:16.355Z,30.15
2023-05-11T11:44:16.394Z,30.13
2023-05-11T11:45:16.603Z,30.09
2023-05-11T11:46:16.583Z,30.05
2023-05-11T11:47:16.594Z,30.05
2023-05-11T11:48:16.597Z,30.06
2023-05-11T11:49:16.666Z,29.98
2023-05-11T11:50:16.731Z,29.98
2023-05-11T11:51:16.748Z,29.96
2023-05-11T11:52:16.837Z,29.92
2023-05-11T11:53:16.871Z,29.86
2023-05-11T11:54:16.923Z,29.88
2023-05-11T11:55:17.199Z,29.85
2023-05-11T11:56:17.076Z,29.85
2023-05-11T11:57:17.096Z,29.81
2023-05-11T11:58:17.226Z,29.80
2023-05-11T11:59:17.206Z,29.79
2023-05-11T12:00:17.288Z,29.80
2023-05-11T12:01:17.343Z,29.74
2023-05-11T12:02:17.370Z,29.75
2023-05-11T12:03:17.438Z,29.70
2023-05-11T12:04:17.561Z,29.68
2023-05-11T12:05:17.776Z,29.67
2023-05-11T12:06:17.569Z,29.59
2023-05-11T12:07:17.633Z,29.57
2023-05-11T12:08:17.676Z,29.60
2023-05-11T12:09:17.748Z,29.56
2023-05-11T12:10:17.837Z,29.56
2023-05-11T12:11:17.875Z,29.55
2023-05-11T12:12:17.921Z,29.51
2023-05-11T12:13:17.945Z,29.47
2023-05-11T12:14:18.056Z,29.47
2023-05-11T12:15:18.346Z,29.43
2023-05-11T12:16:18.150Z,29.43
2023-05-11T12:17:18.231Z,29.47
2023-05-11T12:18:18.304Z,29.41
2023-05-11T12:19:18.392Z,29.37
2023-05-11T12:20:18.407Z,29.40
2023-05-11T12:21:18.451Z,29.33
2023-05-11T12:22:18.488Z,29.33
2023-05-11T12:23:18.547Z,29.30
2023-05-11T12:24:18.637Z,29.32
2023-05-11T12:25:19.011Z,29.32
2023-05-11T12:26:18.734Z,29.33
2023-05-11T12:27:18.786Z,29.32
2023-05-11T12:28:18.829Z,29.34
2023-05-11T12:29:18.853Z,29.30
2023-05-11T12:30:18.882Z,29.30
2023-05-11T12:31:19.007Z,29.27
2023-05-11T12:32:19.072Z,29.33
2023-05-11T12:33:18.995Z,29.27
2023-05-11T12:34:19.073Z,29.23
2023-05-11T12:35:19.349Z,29.26
2023-05-11T12:36:19.148Z,29.23
2023-05-11T12:37:19.176Z,29.22
2023-05-11T12:38:19.792Z,29.25
2023-05-11T12:39:19.277Z,29.26
2023-05-11T12:40:19.336Z,29.20
2023-05-11T12:41:19.344Z,29.17
2023-05-11T12:42:19.401Z,29.22
2023-05-11T12:43:19.449Z,29.24
2023-05-11T12:44:19.461Z,29.23
2023-05-11T12:45:19.803Z,29.13
2023-05-11T12:46:19.609Z,29.19
2023-05-11T12:47:19.644Z,29.20
2023-05-11T12:48:19.627Z,29.24
2023-05-11T12:49:24.836Z,29.67
2023-05-11T12:50:20.707Z,29.84
2023-05-11T12:51:19.700Z,29.61
2023-05-11T12:52:19.759Z,29.65
2023-05-11T12:53:19.672Z,30.33
2023-05-11T12:54:19.656Z,32.40